Meteo Giornale » Osservazioni meteo Stati Uniti (USA) » Kinston-Stallings
ore: 01:35 - Osservazioni Meteo Kinston-Stallings
Lat. 35° 20' N Lon. 77° 37' W Alt. 29 metri s.l.m.
24 °C
Sereno
Temp. 24 Ore
21 °C
34 °C
Nord
0 Km/h
Dew point 23 °C
Umidità 94 %
Visibilità 10 Km
Il sole sorge alle ore 06:43
Il sole tramonta alle ore 19:37
| Data e Ora | Cielo e Fenomeni | T °C | DP °C | Um. % | Pres. hPa | Vis. km | Vento km/h | |
|---|---|---|---|---|---|---|---|---|
| Oggi h: 01:35 | Sereno | 24 | 23 | 94 | 1019 | 10 | N 0 | |
| Oggi h: 01:15 | Sereno | 24 | 23 | 94 | 1019 | 10 | N 5.5 | |
| Oggi h: 00:55 | Sereno | 25 | 24 | 94 | 1019 | 10 | S 7.4 | |
| Oggi h: 00:35 | Sereno | 25 | 24 | 94 | 1019 | 10 | N 5.5 | |
| Oggi h: 00:15 | Sereno | 25 | 24 | 94 | 1019 | 10 | N 5.5 | |
| Ieri h: 23:55 | Sereno | 25 | 24 | 94 | 1019 | 10 | N 5.5 | |
| Ieri h: 23:35 | Sereno | 25 | 24 | 94 | 1019 | 10 | N 5.5 | |
| Ieri h: 23:15 | Sereno | 26 | 24 | 88 | 1019 | 10 | SO 7.4 | |
| Ieri h: 22:55 | Sereno | 26 | 24 | 88 | 1019 | 10 | S 7.4 | |
| Ieri h: 21:50 | Sereno | 27 | 24 | 83 | 1019 | 10 | S 9.3 | |
| Ieri h: 20:50 | Sereno | 28 | 23 | 74 | 1018 | 10 | S 13 | |
| Ieri h: 19:50 | Sereno | 30 | 22 | 62 | 1018 | 10 | E/SE 7.4 | |
| Ieri h: 18:50 | Sereno | 32 | 20 | 49 | 1018 | 10 | E/SE 9.3 | |
| Ieri h: 17:50 | Sereno | 33 | 20 | 46 | 1018 | 10 | N 0 | |
| Ieri h: 16:50 | Nuvoloso | 34 | 20 | 43 | 1018 | 10 | N 0 | |
| Ieri h: 15:50 | Nuvoloso | 33 | 20 | 46 | 1018 | 10 | N 5.5 | |
| Ieri h: 14:50 | Nuvoloso | 33 | 21 | 49 | 1019 | 10 | N 0 | |
| Ieri h: 13:50 | Molto Nuvoloso | 32 | 22 | 55 | 1019 | 10 | N 0 | |
| Ieri h: 12:50 | Sereno | 32 | 22 | 55 | 1020 | 10 | N 5.5 | |
| Ieri h: 11:51 | Sereno | 30 | 22 | 62 | 1020 | 10 | N 0 | |
| Ieri h: 10:51 | Sereno | 29 | 23 | 70 | 1020 | 10 | N 0 | |
| Ieri h: 09:51 | Sereno | 28 | 23 | 74 | 1020 | 10 | N 5.5 | |
| Ieri h: 08:51 | Sereno | 26 | 23 | 83 | 1020 | 10 | N 5.5 | |
| Ieri h: 07:51 | Sereno | 23 | 23 | 100 | 1020 | 10 | N 0 | |
| Ieri h: 06:51 | Sereno | 21 | 21 | 100 | 1020 | 11 | N 0 | |
| Ieri h: 06:21 | Foschia | 21 | 21 | 100 | 1019 | 6 | N 0 | |
| Ieri h: 06:15 | Foschia | 21 | 21 | 100 | 1019 | 6 | N 0 | |
| Ieri h: 05:55 | Sereno | 21 | 21 | 100 | 1019 | 10 | N 0 | |
| Ieri h: 05:35 | Sereno | 21 | 21 | 100 | 1019 | 10 | N 0 | |
| Ieri h: 05:15 | Sereno | 22 | 22 | 100 | 1019 | 10 | N 0 | |
| Ieri h: 04:55 | Sereno | 22 | 22 | 100 | 1019 | 10 | N 0 | |
| Ieri h: 04:35 | Foschia | 21 | 21 | 100 | 1020 | 2 | N 0 | |
| Ieri h: 04:15 | Sereno | 22 | 21 | 94 | 1020 | 10 | N 0 | |
| Ieri h: 03:55 | Sereno | 22 | 21 | 94 | 1020 | 11 | N 0 | |
| Ieri h: 03:35 | Foschia | 21 | 21 | 100 | 1020 | 3 | N 0 | |
| Ieri h: 03:15 | Sereno | 22 | 22 | 100 | 1020 | 11 | N 0 | |
| Ieri h: 02:55 | Foschia | 22 | 22 | 100 | 1020 | 8 | N 0 | |
| Ieri h: 02:35 | Sereno | 22 | 22 | 100 | 1020 | 10 | N 0 | |



